Time;durP1;ratioP1;P1;durP2;ratioP2;P2;SDS_P1;SDS_P2;PMS_P1;PMS_P2;Temp;Humidity;BMP_temperature;BMP_pressure;BME280_temperature;BME280_humidity;BME280_pressure;Samples;Min_cycle;Max_cycle;Signal;HPM_P1;HPM_P2
2022/10/13 00:01:18;;;;;;;16.77;13.20;;;;;;;;;;5019311;28;20192;-81
2022/10/13 00:04:23;;;;;;;16.33;13.33;;;;;;;;;;5041968;28;20212;-82
2022/10/13 00:07:27;;;;;;;13.77;12.17;;;;;;;;;;5030808;28;20189;-81
2022/10/13 00:10:35;;;;;;;15.90;13.33;;;;;;;;;;5030498;28;20628;-81
2022/10/13 00:13:40;;;;;;;15.73;12.30;;;;;;;;;;5041706;28;20216;-82
2022/10/13 00:16:45;;;;;;;17.37;13.03;;;;;;;;;;5040718;28;20176;-81
2022/10/13 00:19:49;;;;;;;16.63;11.50;;;;;;;;;;5041033;28;20180;-81
2022/10/13 00:22:53;;;;;;;15.53;11.57;;;;;;;;;;5018333;28;20172;-81
2022/10/13 00:25:57;;;;;;;15.07;11.50;;;;;;;;;;5041101;28;20201;-81
2022/10/13 00:29:01;;;;;;;17.73;12.00;;;;;;;;;;5041641;28;20173;-81
2022/10/13 00:32:05;;;;;;;18.73;12.90;;;;;;;;;;5018345;28;20180;-80
2022/10/13 00:35:10;;;;;;;13.23;11.80;;;;;;;;;;5041579;28;20181;-81
2022/10/13 00:38:16;;;;;;;13.43;11.53;;;;;;;;;;5029794;28;20177;-82
2022/10/13 00:41:21;;;;;;;14.37;11.90;;;;;;;;;;5041192;28;20177;-81
2022/10/13 00:45:07;;;;;;;11.50;10.30;;;;;;;;;;5017034;28;20212;-81
2022/10/13 00:48:12;;;;;;;12.93;11.17;;;;;;;;;;5027967;28;20185;-81
2022/10/13 00:51:22;;;;;;;14.40;11.73;;;;;;;;;;5028609;28;20632;-81
2022/10/13 00:54:28;;;;;;;13.17;11.03;;;;;;;;;;5039913;28;20232;-81
2022/10/13 00:57:32;;;;;;;11.33;9.40;;;;;;;;;;5039875;28;20169;-81
2022/10/13 01:00:37;;;;;;;13.27;9.77;;;;;;;;;;5039619;28;20671;-80
2022/10/13 01:03:41;;;;;;;12.27;10.53;;;;;;;;;;5016002;28;20212;-81
2022/10/13 01:06:45;;;;;;;12.30;9.60;;;;;;;;;;5039450;28;20565;-81
2022/10/13 01:09:52;;;;;;;13.43;11.00;;;;;;;;;;5028234;28;20185;-81
2022/10/13 01:13:11;;;;;;;13.07;10.57;;;;;;;;;;5039551;28;20216;-80
2022/10/13 01:16:22;;;;;;;13.90;11.37;;;;;;;;;;5039765;28;20529;-81
2022/10/13 01:19:46;;;;;;;19.80;10.83;;;;;;;;;;5017619;28;20197;-81
2022/10/13 01:23:23;;;;;;;12.73;11.23;;;;;;;;;;5039138;28;20177;-80
2022/10/13 01:26:36;;;;;;;15.30;11.07;;;;;;;;;;5016855;28;20216;-81
2022/10/13 01:30:09;;;;;;;16.40;10.67;;;;;;;;;;5021018;28;20184;-81
2022/10/13 01:33:39;;;;;;;20.27;13.33;;;;;;;;;;5039447;28;20228;-81
2022/10/13 01:37:02;;;;;;;19.57;12.87;;;;;;;;;;5043933;28;20625;-81
2022/10/13 01:40:23;;;;;;;16.53;11.87;;;;;;;;;;5021458;28;20181;-81
2022/10/13 01:43:35;;;;;;;21.07;14.13;;;;;;;;;;5031929;28;20225;-81
2022/10/13 01:46:39;;;;;;;20.57;13.67;;;;;;;;;;5043344;28;20213;-81
2022/10/13 01:49:44;;;;;;;17.93;13.17;;;;;;;;;;5043707;28;20181;-81
2022/10/13 01:52:50;;;;;;;16.63;12.90;;;;;;;;;;5043383;28;20177;-81
2022/10/13 01:55:58;;;;;;;18.33;12.47;;;;;;;;;;5023097;28;20173;-81
2022/10/13 01:59:08;;;;;;;19.77;12.90;;;;;;;;;;5045356;28;20181;-81
2022/10/13 02:02:31;;;;;;;20.70;13.07;;;;;;;;;;5033241;28;20632;-81
2022/10/13 02:06:08;;;;;;;21.87;12.60;;;;;;;;;;5043763;28;20185;-80
2022/10/13 02:09:24;;;;;;;18.80;12.47;;;;;;;;;;5021016;28;20197;-81
2022/10/13 02:12:38;;;;;;;19.37;12.83;;;;;;;;;;5043355;28;20188;-81
2022/10/13 02:15:46;;;;;;;18.33;13.43;;;;;;;;;;5042751;28;20681;-80
2022/10/13 02:18:51;;;;;;;22.77;13.27;;;;;;;;;;5042569;28;20173;-81
2022/10/13 02:21:57;;;;;;;18.57;13.27;;;;;;;;;;5041856;28;20177;-80
2022/10/13 02:25:01;;;;;;;18.83;13.90;;;;;;;;;;5041625;28;20632;-80
2022/10/13 02:28:07;;;;;;;20.80;14.20;;;;;;;;;;5029962;28;20177;-81
2022/10/13 02:31:19;;;;;;;19.03;13.23;;;;;;;;;;5042078;28;20197;-80
2022/10/13 02:34:24;;;;;;;19.70;12.73;;;;;;;;;;5041129;28;20213;-81
2022/10/13 02:37:28;;;;;;;17.03;12.17;;;;;;;;;;5018607;28;20636;-80
2022/10/13 02:40:32;;;;;;;17.40;12.40;;;;;;;;;;5018228;28;20180;-81
2022/10/13 02:43:37;;;;;;;16.50;12.07;;;;;;;;;;5040834;28;20216;-81
2022/10/13 02:46:42;;;;;;;14.50;11.23;;;;;;;;;;5041436;28;20217;-81
2022/10/13 02:49:46;;;;;;;16.90;11.30;;;;;;;;;;5041827;28;20181;-81
2022/10/13 02:52:50;;;;;;;14.13;11.00;;;;;;;;;;5030512;28;20184;-81
2022/10/13 02:55:54;;;;;;;18.10;11.77;;;;;;;;;;5042227;28;20530;-81
2022/10/13 02:58:58;;;;;;;18.17;11.57;;;;;;;;;;5040702;28;20180;-80
2022/10/13 03:02:02;;;;;;;18.20;12.07;;;;;;;;;;5040628;28;20176;-81
2022/10/13 03:05:08;;;;;;;17.03;12.97;;;;;;;;;;5015842;28;20181;-80
2022/10/13 03:08:12;;;;;;;14.83;11.43;;;;;;;;;;5014843;28;20205;-81
2022/10/13 03:11:17;;;;;;;17.07;12.27;;;;;;;;;;5038140;28;20185;-80
2022/10/13 03:14:21;;;;;;;13.97;11.57;;;;;;;;;;5038256;28;20212;-80
2022/10/13 03:17:26;;;;;;;18.57;11.40;;;;;;;;;;5026653;28;20513;-81
2022/10/13 03:20:29;;;;;;;15.20;11.67;;;;;;;;;;5015143;28;20205;-80
2022/10/13 03:23:34;;;;;;;16.80;11.27;;;;;;;;;;5038113;28;20553;-80
2022/10/13 03:26:38;;;;;;;15.20;11.63;;;;;;;;;;5037879;28;20209;-80
2022/10/13 03:29:42;;;;;;;16.67;11.50;;;;;;;;;;5026982;28;20184;-80
2022/10/13 03:32:46;;;;;;;18.57;11.63;;;;;;;;;;5014779;28;20185;-81
2022/10/13 03:35:50;;;;;;;17.07;12.53;;;;;;;;;;5037557;28;20180;-80
2022/10/13 03:38:54;;;;;;;16.13;12.30;;;;;;;;;;5037271;28;20168;-80
2022/10/13 03:41:58;;;;;;;24.63;13.67;;;;;;;;;;5028632;28;20656;-80
2022/10/13 03:45:04;;;;;;;17.73;12.47;;;;;;;;;;5038781;28;20201;-80
2022/10/13 03:48:11;;;;;;;19.27;11.90;;;;;;;;;;5038314;28;20213;-80
2022/10/13 03:51:17;;;;;;;18.70;13.03;;;;;;;;;;5016268;28;20180;-81
2022/10/13 03:54:26;;;;;;;18.43;12.50;;;;;;;;;;5038069;28;20220;-81
2022/10/13 03:57:30;;;;;;;17.17;12.57;;;;;;;;;;5015379;28;20173;-81
2022/10/13 04:00:34;;;;;;;15.60;12.30;;;;;;;;;;5037844;28;20181;-81
2022/10/13 04:03:39;;;;;;;19.17;12.43;;;;;;;;;;5014852;28;20224;-80
2022/10/13 04:06:43;;;;;;;17.47;13.13;;;;;;;;;;5026216;28;20212;-81
2022/10/13 04:09:47;;;;;;;18.00;13.53;;;;;;;;;;5026804;28;20177;-81
2022/10/13 04:12:51;;;;;;;17.67;12.43;;;;;;;;;;5018318;28;20205;-79
2022/10/13 04:15:55;;;;;;;22.77;14.33;;;;;;;;;;5014847;28;20200;-81
2022/10/13 04:19:02;;;;;;;20.83;14.13;;;;;;;;;;5036037;28;20593;-80
2022/10/13 04:22:06;;;;;;;25.10;15.13;;;;;;;;;;5023807;28;20177;-81
2022/10/13 04:25:10;;;;;;;22.97;15.63;;;;;;;;;;5033041;28;20193;-79
2022/10/13 04:28:15;;;;;;;19.97;15.53;;;;;;;;;;5009908;28;20214;-79
2022/10/13 04:31:22;;;;;;;21.03;15.03;;;;;;;;;;5011151;28;20204;-79
2022/10/13 04:34:27;;;;;;;20.03;15.13;;;;;;;;;;4992895;28;20225;-80
2022/10/13 04:37:31;;;;;;;26.60;15.17;;;;;;;;;;5016223;28;20197;-80
2022/10/13 04:40:35;;;;;;;21.27;14.70;;;;;;;;;;5037920;28;20672;-78
2022/10/13 04:43:40;;;;;;;18.13;13.80;;;;;;;;;;5038490;28;20221;-78
2022/10/13 04:46:44;;;;;;;20.37;14.23;;;;;;;;;;5016323;28;20213;-79
2022/10/13 04:49:49;;;;;;;23.07;14.53;;;;;;;;;;5026737;28;20180;-80
2022/10/13 04:52:53;;;;;;;23.37;14.57;;;;;;;;;;5027030;28;20177;-81
2022/10/13 04:56:07;;;;;;;20.13;14.47;;;;;;;;;;5038716;28;20177;-78
2022/10/13 04:59:11;;;;;;;22.80;14.90;;;;;;;;;;5004297;28;20186;-79
2022/10/13 05:02:15;;;;;;;24.33;15.50;;;;;;;;;;5015140;28;20190;-80
2022/10/13 05:05:19;;;;;;;23.97;14.97;;;;;;;;;;5027376;28;20185;-80
2022/10/13 05:08:23;;;;;;;21.60;15.23;;;;;;;;;;5027589;28;20205;-80
2022/10/13 05:11:28;;;;;;;27.30;16.17;;;;;;;;;;5026267;28;20625;-83
2022/10/13 05:14:33;;;;;;;25.30;15.40;;;;;;;;;;5003874;28;20213;-83
2022/10/13 05:17:37;;;;;;;32.53;16.47;;;;;;;;;;5014879;28;20625;-85
2022/10/13 05:20:45;;;;;;;30.70;16.17;;;;;;;;;;5002734;28;20181;-85
2022/10/13 05:23:54;;;;;;;27.37;17.13;;;;;;;;;;5031842;28;20217;-83
2022/10/13 05:26:58;;;;;;;25.63;15.37;;;;;;;;;;5029088;28;20209;-84
2022/10/13 05:30:03;;;;;;;26.90;16.03;;;;;;;;;;5025445;28;20185;-84
2022/10/13 05:33:08;;;;;;;25.50;16.37;;;;;;;;;;5027425;28;20221;-86
2022/10/13 05:36:16;;;;;;;25.13;16.20;;;;;;;;;;5026267;28;20625;-84
2022/10/13 05:39:21;;;;;;;31.63;17.70;;;;;;;;;;5008345;28;20170;-85
2022/10/13 05:42:28;;;;;;;29.57;17.37;;;;;;;;;;5027079;28;20186;-86
2022/10/13 05:45:32;;;;;;;33.63;17.03;;;;;;;;;;5028771;28;20186;-86
2022/10/13 05:48:36;;;;;;;26.17;16.77;;;;;;;;;;5027159;28;20213;-84
2022/10/13 05:51:49;;;;;;;29.70;18.07;;;;;;;;;;5028610;28;20241;-86
2022/10/13 05:54:56;;;;;;;31.83;18.40;;;;;;;;;;5039069;28;20574;-83
2022/10/13 05:58:01;;;;;;;30.53;18.40;;;;;;;;;;5029865;28;20618;-83
2022/10/13 06:01:08;;;;;;;24.87;16.00;;;;;;;;;;5030748;28;20518;-82
2022/10/13 06:04:26;;;;;;;34.37;18.50;;;;;;;;;;5041308;28;20221;-83
2022/10/13 06:07:30;;;;;;;39.27;24.50;;;;;;;;;;5032978;28;20226;-84
2022/10/13 06:10:36;;;;;;;36.13;23.73;;;;;;;;;;5018834;28;20197;-83
2022/10/13 06:13:40;;;;;;;27.33;19.00;;;;;;;;;;5034723;28;20224;-83
2022/10/13 06:16:44;;;;;;;28.20;17.17;;;;;;;;;;5029136;28;20204;-83
2022/10/13 06:19:48;;;;;;;26.43;16.07;;;;;;;;;;5017576;28;20173;-84
2022/10/13 06:22:56;;;;;;;23.60;16.30;;;;;;;;;;5036800;28;20173;-82
2022/10/13 06:26:00;;;;;;;28.40;16.77;;;;;;;;;;5037410;28;20181;-80
2022/10/13 06:29:04;;;;;;;25.80;15.03;;;;;;;;;;5026321;28;20209;-79
2022/10/13 06:32:08;;;;;;;25.90;15.90;;;;;;;;;;5037900;28;20181;-80
2022/10/13 06:35:12;;;;;;;22.67;15.40;;;;;;;;;;5037651;28;20181;-79
2022/10/13 06:38:16;;;;;;;23.40;15.90;;;;;;;;;;5037596;28;20207;-81
2022/10/13 06:41:25;;;;;;;27.30;16.57;;;;;;;;;;5039060;28;20203;-81
2022/10/13 06:44:31;;;;;;;23.40;15.17;;;;;;;;;;5038063;28;20220;-82
2022/10/13 06:47:38;;;;;;;23.27;15.97;;;;;;;;;;5038726;28;20209;-81
2022/10/13 06:50:42;;;;;;;25.10;15.17;;;;;;;;;;5035815;28;20196;-78
2022/10/13 06:53:47;;;;;;;23.00;16.57;;;;;;;;;;5026356;28;20236;-78
2022/10/13 06:56:51;;;;;;;23.80;15.57;;;;;;;;;;5020660;28;20201;-79
2022/10/13 06:59:55;;;;;;;21.87;14.93;;;;;;;;;;5036942;28;20751;-78
2022/10/13 07:03:00;;;;;;;23.80;15.00;;;;;;;;;;5039449;28;20215;-79
2022/10/13 07:06:05;;;;;;;19.70;15.53;;;;;;;;;;5037484;28;20188;-79
2022/10/13 07:09:09;;;;;;;24.57;14.50;;;;;;;;;;5014390;28;20686;-79
2022/10/13 07:12:13;;;;;;;19.47;14.27;;;;;;;;;;5038221;28;20180;-79
2022/10/13 07:15:17;;;;;;;17.40;13.17;;;;;;;;;;5038433;28;20199;-80
2022/10/13 07:18:22;;;;;;;17.77;14.00;;;;;;;;;;5014877;28;20200;-82
2022/10/13 07:21:26;;;;;;;16.77;12.37;;;;;;;;;;5016102;28;20203;-82
2022/10/13 07:24:31;;;;;;;17.00;11.67;;;;;;;;;;5037376;28;20223;-81
2022/10/13 07:27:36;;;;;;;16.60;11.90;;;;;;;;;;5037839;28;20614;-81
2022/10/13 07:30:40;;;;;;;18.43;12.93;;;;;;;;;;5014600;28;20544;-81
2022/10/13 07:33:48;;;;;;;19.73;12.50;;;;;;;;;;5036927;28;20330;-81
2022/10/13 07:36:54;;;;;;;18.33;12.43;;;;;;;;;;5036945;28;20188;-81
2022/10/13 07:39:59;;;;;;;16.53;12.03;;;;;;;;;;5036952;28;20196;-81
2022/10/13 07:43:06;;;;;;;19.10;12.53;;;;;;;;;;5036880;28;20223;-80
2022/10/13 07:46:12;;;;;;;18.20;12.73;;;;;;;;;;5036468;28;20191;-80
2022/10/13 07:49:16;;;;;;;25.27;13.33;;;;;;;;;;5013819;28;20218;-82
2022/10/13 07:52:21;;;;;;;18.83;12.03;;;;;;;;;;5025197;28;20184;-82
2022/10/13 07:55:25;;;;;;;18.63;12.67;;;;;;;;;;5035691;28;20215;-82
2022/10/13 07:58:32;;;;;;;20.37;13.23;;;;;;;;;;5036819;28;20203;-79
2022/10/13 08:01:36;;;;;;;21.53;13.53;;;;;;;;;;5037911;28;20192;-79
2022/10/13 08:04:40;;;;;;;19.03;13.03;;;;;;;;;;5025906;28;20227;-82
2022/10/13 08:07:44;;;;;;;18.50;12.60;;;;;;;;;;5015166;28;20279;-82
2022/10/13 08:10:48;;;;;;;23.23;13.97;;;;;;;;;;5027169;28;20188;-81
2022/10/13 08:13:54;;;;;;;18.63;12.30;;;;;;;;;;5015079;28;20595;-82
2022/10/13 08:17:00;;;;;;;15.57;11.83;;;;;;;;;;5037452;28;20553;-81
2022/10/13 08:20:05;;;;;;;16.53;11.67;;;;;;;;;;5014393;28;20648;-80
2022/10/13 08:23:13;;;;;;;19.77;12.77;;;;;;;;;;5038034;28;20224;-81
2022/10/13 08:26:27;;;;;;;16.50;11.93;;;;;;;;;;5016051;28;20256;-80
2022/10/13 08:29:31;;;;;;;22.10;12.40;;;;;;;;;;5037060;28;20227;-81
2022/10/13 08:32:35;;;;;;;21.43;12.93;;;;;;;;;;5037503;28;20192;-80
2022/10/13 08:35:41;;;;;;;23.47;14.27;;;;;;;;;;5014893;28;20628;-80
2022/10/13 08:38:45;;;;;;;23.00;16.50;;;;;;;;;;5035921;28;20192;-80
2022/10/13 08:41:50;;;;;;;23.53;13.83;;;;;;;;;;5037097;28;20207;-80
2022/10/13 08:44:59;;;;;;;21.20;12.93;;;;;;;;;;5024870;28;20227;-81
2022/10/13 08:48:31;;;;;;;30.80;17.00;;;;;;;;;;5024795;28;20216;-80
2022/10/13 08:51:35;;;;;;;24.00;15.93;;;;;;;;;;5035714;28;20583;-81
2022/10/13 08:54:39;;;;;;;20.17;15.00;;;;;;;;;;5037068;28;20231;-79
2022/10/13 08:57:44;;;;;;;19.23;12.13;;;;;;;;;;5026493;28;20204;-79
2022/10/13 09:01:17;;;;;;;14.63;11.17;;;;;;;;;;5013548;28;20204;-80
2022/10/13 09:04:27;;;;;;;16.00;11.30;;;;;;;;;;5024166;28;20223;-79
2022/10/13 09:07:36;;;;;;;17.00;12.37;;;;;;;;;;5035733;28;20199;-80
2022/10/13 09:10:50;;;;;;;19.10;12.23;;;;;;;;;;5035088;28;20185;-81
2022/10/13 09:14:02;;;;;;;18.00;12.87;;;;;;;;;;5013130;28;20332;-81
2022/10/13 09:17:19;;;;;;;18.97;12.60;;;;;;;;;;5024071;28;20679;-80
2022/10/13 09:20:26;;;;;;;21.03;14.63;;;;;;;;;;5012240;28;20560;-81
2022/10/13 09:23:30;;;;;;;19.63;13.17;;;;;;;;;;5034300;28;20307;-81
2022/10/13 09:26:38;;;;;;;16.63;13.23;;;;;;;;;;5035415;28;20207;-80
2022/10/13 09:29:43;;;;;;;15.47;11.73;;;;;;;;;;5034711;28;20223;-82
2022/10/13 09:32:50;;;;;;;15.30;11.43;;;;;;;;;;5023838;28;20204;-78
2022/10/13 09:36:01;;;;;;;16.47;10.87;;;;;;;;;;5036486;28;20203;-79
2022/10/13 09:39:15;;;;;;;16.17;10.77;;;;;;;;;;5012630;28;20196;-80
2022/10/13 09:42:25;;;;;;;15.27;12.63;;;;;;;;;;5035959;28;20193;-81
2022/10/13 09:45:29;;;;;;;15.97;12.90;;;;;;;;;;5035663;28;20207;-80
2022/10/13 09:48:36;;;;;;;17.50;11.63;;;;;;;;;;5036093;28;20220;-81
2022/10/13 09:51:44;;;;;;;13.43;10.20;;;;;;;;;;5040149;28;20211;-81
2022/10/13 09:54:59;;;;;;;27.13;10.50;;;;;;;;;;5039657;28;20598;-81
2022/10/13 09:58:21;;;;;;;17.77;10.27;;;;;;;;;;5041200;28;20180;-85
2022/10/13 10:01:31;;;;;;;15.33;10.30;;;;;;;;;;5041394;28;20249;-85
2022/10/13 10:04:37;;;;;;;10.83;9.70;;;;;;;;;;5017270;28;20224;-83
2022/10/13 10:07:41;;;;;;;14.40;11.13;;;;;;;;;;5028405;28;20177;-83
2022/10/13 10:10:46;;;;;;;16.63;11.00;;;;;;;;;;5015956;28;20192;-83
2022/10/13 10:13:51;;;;;;;14.13;10.90;;;;;;;;;;5039072;28;20223;-83
2022/10/13 10:17:20;;;;;;;15.00;10.73;;;;;;;;;;5016486;28;20212;-82
2022/10/13 10:20:44;;;;;;;13.00;9.00;;;;;;;;;;5017205;28;20184;-82
2022/10/13 10:23:58;;;;;;;17.63;10.67;;;;;;;;;;5039890;28;20216;-82
2022/10/13 10:27:17;;;;;;;16.57;11.63;;;;;;;;;;5028200;28;20192;-80
2022/10/13 10:30:21;;;;;;;17.23;9.70;;;;;;;;;;5027007;28;20687;-82
2022/10/13 10:33:55;;;;;;;15.13;9.20;;;;;;;;;;5027563;28;20224;-84
2022/10/13 10:37:21;;;;;;;13.97;9.17;;;;;;;;;;5027257;28;20185;-84
2022/10/13 10:40:51;;;;;;;12.73;9.77;;;;;;;;;;5038248;28;20193;-83
2022/10/13 10:44:01;;;;;;;13.43;9.23;;;;;;;;;;5038194;28;20683;-83
2022/10/13 10:47:15;;;;;;;13.07;9.03;;;;;;;;;;5038469;28;20177;-83
2022/10/13 10:50:20;;;;;;;12.97;9.50;;;;;;;;;;5037958;28;20208;-83
2022/10/13 10:53:53;;;;;;;16.53;10.40;;;;;;;;;;5037832;28;20553;-84
2022/10/13 10:57:07;;;;;;;13.37;10.30;;;;;;;;;;5015271;28;20184;-81
2022/10/13 11:00:18;;;;;;;15.43;10.13;;;;;;;;;;5015181;28;20180;-81
2022/10/13 11:03:25;;;;;;;16.40;10.47;;;;;;;;;;5027119;28;20710;-83
2022/10/13 11:06:35;;;;;;;19.43;11.60;;;;;;;;;;5027228;28;20208;-83
2022/10/13 11:09:39;;;;;;;18.03;11.20;;;;;;;;;;5015578;28;20216;-83
2022/10/13 11:12:46;;;;;;;19.07;11.57;;;;;;;;;;5015472;28;20203;-82
2022/10/13 11:15:51;;;;;;;17.90;11.50;;;;;;;;;;5037967;28;20188;-82
2022/10/13 11:19:04;;;;;;;18.00;11.43;;;;;;;;;;5025471;28;20639;-83
2022/10/13 11:22:11;;;;;;;21.07;10.47;;;;;;;;;;5037532;28;20184;-82
2022/10/13 11:25:38;;;;;;;15.27;9.23;;;;;;;;;;5014853;28;20196;-82
2022/10/13 11:28:45;;;;;;;16.30;10.27;;;;;;;;;;5036343;28;20213;-85
2022/10/13 11:31:53;;;;;;;16.77;11.10;;;;;;;;;;5025037;28;20188;-85
2022/10/13 11:35:04;;;;;;;15.53;9.90;;;;;;;;;;5036216;28;20192;-85
2022/10/13 11:38:35;;;;;;;16.30;10.67;;;;;;;;;;5036199;28;20525;-85
2022/10/13 11:42:08;;;;;;;13.03;9.97;;;;;;;;;;5024501;28;20184;-86
2022/10/13 11:45:20;;;;;;;19.27;11.10;;;;;;;;;;5016311;28;20182;-82
2022/10/13 11:48:27;;;;;;;14.33;10.23;;;;;;;;;;5039453;28;20185;-82
2022/10/13 11:51:31;;;;;;;17.00;13.13;;;;;;;;;;5039110;28;20189;-83
2022/10/13 11:54:45;;;;;;;15.23;10.60;;;;;;;;;;5039053;28;20224;-83
2022/10/13 11:57:49;;;;;;;15.87;10.83;;;;;;;;;;5028293;28;20213;-82
2022/10/13 12:01:02;;;;;;;14.90;10.03;;;;;;;;;;5028331;28;20180;-83
2022/10/13 12:04:14;;;;;;;15.00;10.87;;;;;;;;;;5027249;28;20224;-83
2022/10/13 12:07:21;;;;;;;25.63;9.97;;;;;;;;;;5028368;28;20208;-83
2022/10/13 12:10:32;;;;;;;15.57;10.50;;;;;;;;;;5005130;28;20213;-83
2022/10/13 12:13:37;;;;;;;17.37;10.13;;;;;;;;;;5027061;28;20220;-83
2022/10/13 12:16:54;;;;;;;12.43;9.30;;;;;;;;;;5015885;28;20283;-83
2022/10/13 12:20:01;;;;;;;15.57;9.77;;;;;;;;;;5015936;28;20185;-82
2022/10/13 12:23:15;;;;;;;15.40;9.70;;;;;;;;;;5026968;28;20213;-83
2022/10/13 12:26:24;;;;;;;17.20;9.07;;;;;;;;;;5004756;28;20620;-82
2022/10/13 12:29:28;;;;;;;14.97;10.20;;;;;;;;;;5004544;28;20225;-83
2022/10/13 12:32:34;;;;;;;22.57;9.73;;;;;;;;;;5015900;28;20208;-83
2022/10/13 12:35:38;;;;;;;24.33;9.33;;;;;;;;;;5015723;28;20185;-83
2022/10/13 12:38:53;;;;;;;34.77;19.43;;;;;;;;;;4994120;28;20189;-83
2022/10/13 12:42:01;;;;;;;17.20;10.80;;;;;;;;;;5015491;28;20193;-82
2022/10/13 12:45:06;;;;;;;14.27;9.23;;;;;;;;;;5027679;28;20205;-82
2022/10/13 12:48:37;;;;;;;15.57;8.77;;;;;;;;;;5039563;28;20204;-85
2022/10/13 12:52:22;;;;;;;20.60;9.43;;;;;;;;;;5034627;28;20176;-85
2022/10/13 12:55:26;;;;;;;16.57;9.20;;;;;;;;;;5011327;28;20200;-84
2022/10/13 12:58:33;;;;;;;16.20;8.90;;;;;;;;;;5012041;28;20652;-85
2022/10/13 13:01:37;;;;;;;14.97;8.40;;;;;;;;;;5023508;28;20513;-85
2022/10/13 13:04:42;;;;;;;17.07;9.57;;;;;;;;;;5011435;28;20224;-84
2022/10/13 13:07:53;;;;;;;15.37;9.40;;;;;;;;;;5022304;28;20200;-84
2022/10/13 13:10:59;;;;;;;16.80;9.13;;;;;;;;;;5033419;28;20560;-84
2022/10/13 13:14:38;;;;;;;15.60;8.97;;;;;;;;;;5011295;28;20565;-84
2022/10/13 13:17:44;;;;;;;16.63;9.03;;;;;;;;;;5011007;28;20632;-84
2022/10/13 13:20:50;;;;;;;18.33;9.23;;;;;;;;;;5034060;28;20177;-85
2022/10/13 13:23:54;;;;;;;15.40;9.00;;;;;;;;;;5004261;28;20217;-86
2022/10/13 13:26:58;;;;;;;15.93;9.33;;;;;;;;;;5007716;28;20181;-81
2022/10/13 13:30:03;;;;;;;19.00;9.30;;;;;;;;;;5020316;28;20208;-82
2022/10/13 13:33:08;;;;;;;14.83;9.07;;;;;;;;;;5032300;28;20208;-82
2022/10/13 13:36:14;;;;;;;16.97;7.83;;;;;;;;;;5041431;28;20181;-82
2022/10/13 13:39:21;;;;;;;14.27;8.43;;;;;;;;;;5034713;28;20185;-81
2022/10/13 13:42:29;;;;;;;12.50;8.67;;;;;;;;;;5034554;28;20184;-82
2022/10/13 13:45:34;;;;;;;11.43;8.20;;;;;;;;;;5041723;28;20201;-81
2022/10/13 13:48:39;;;;;;;12.37;8.63;;;;;;;;;;5020511;28;20193;-81
2022/10/13 13:51:43;;;;;;;12.50;8.80;;;;;;;;;;5042088;28;20192;-81
2022/10/13 13:54:49;;;;;;;12.37;8.07;;;;;;;;;;5040200;28;20220;-81
2022/10/13 13:57:53;;;;;;;12.90;9.37;;;;;;;;;;5018506;28;20204;-81
2022/10/13 14:00:58;;;;;;;17.03;9.13;;;;;;;;;;5019791;28;20181;-81
2022/10/13 14:04:03;;;;;;;19.83;8.80;;;;;;;;;;5041396;28;20220;-81
2022/10/13 14:07:07;;;;;;;13.83;7.87;;;;;;;;;;5029802;28;20189;-82
2022/10/13 14:10:12;;;;;;;15.23;8.63;;;;;;;;;;5036001;28;20216;-82
2022/10/13 14:13:16;;;;;;;17.27;8.97;;;;;;;;;;5028262;28;20216;-82
2022/10/13 14:16:21;;;;;;;11.83;8.67;;;;;;;;;;5027351;28;20197;-85
2022/10/13 14:19:26;;;;;;;13.30;9.20;;;;;;;;;;5039346;28;20517;-85
2022/10/13 14:22:30;;;;;;;22.83;9.47;;;;;;;;;;5040452;28;20513;-85
2022/10/13 14:25:37;;;;;;;11.90;8.60;;;;;;;;;;5039477;28;20185;-85
2022/10/13 14:28:44;;;;;;;14.80;8.23;;;;;;;;;;5038772;28;20181;-84
2022/10/13 14:31:48;;;;;;;10.77;7.47;;;;;;;;;;5027099;28;20173;-85
2022/10/13 14:34:52;;;;;;;12.23;8.17;;;;;;;;;;5036450;28;20571;-86
2022/10/13 14:37:56;;;;;;;14.10;7.87;;;;;;;;;;5015295;28;20620;-86
2022/10/13 14:41:03;;;;;;;34.17;14.10;;;;;;;;;;5037054;28;20193;-86
2022/10/13 14:44:10;;;;;;;19.43;10.43;;;;;;;;;;5014231;28;20224;-82
2022/10/13 14:47:15;;;;;;;14.60;8.73;;;;;;;;;;5037445;28;20188;-81
2022/10/13 14:50:19;;;;;;;13.03;8.57;;;;;;;;;;5039194;28;20208;-81
2022/10/13 14:53:32;;;;;;;19.30;13.87;;;;;;;;;;5036935;28;20216;-82
2022/10/13 14:56:36;;;;;;;27.60;13.10;;;;;;;;;;5037964;28;20192;-81
2022/10/13 14:59:41;;;;;;;24.27;13.93;;;;;;;;;;5026286;28;20208;-81
2022/10/13 15:02:45;;;;;;;34.07;16.80;;;;;;;;;;5027702;28;20192;-81
2022/10/13 15:05:49;;;;;;;17.07;11.00;;;;;;;;;;5039600;28;20188;-82
2022/10/13 15:08:55;;;;;;;22.67;10.60;;;;;;;;;;5025459;28;20180;-81
2022/10/13 15:12:01;;;;;;;24.80;11.50;;;;;;;;;;5038194;28;20181;-81
2022/10/13 15:15:06;;;;;;;14.70;9.93;;;;;;;;;;5039562;28;20184;-82
2022/10/13 15:18:10;;;;;;;12.93;8.53;;;;;;;;;;5041877;28;20181;-82
2022/10/13 15:21:16;;;;;;;13.30;9.10;;;;;;;;;;5041677;28;20177;-82
2022/10/13 15:24:20;;;;;;;25.03;9.50;;;;;;;;;;5041991;28;20217;-82
2022/10/13 15:27:29;;;;;;;25.83;10.73;;;;;;;;;;5043530;28;20176;-82
2022/10/13 15:30:33;;;;;;;24.77;9.87;;;;;;;;;;5019671;28;20219;-82
2022/10/13 15:33:48;;;;;;;20.17;8.83;;;;;;;;;;5021752;28;20221;-82
2022/10/13 15:36:53;;;;;;;23.07;9.67;;;;;;;;;;5009829;28;20205;-82
2022/10/13 15:39:57;;;;;;;20.27;9.30;;;;;;;;;;5042124;28;20548;-82
2022/10/13 15:43:01;;;;;;;14.17;8.57;;;;;;;;;;5028856;28;20239;-85
2022/10/13 15:46:09;;;;;;;12.47;8.50;;;;;;;;;;5051314;28;20649;-86
2022/10/13 15:49:13;;;;;;;11.40;7.67;;;;;;;;;;5019002;28;20630;-85
2022/10/13 15:52:17;;;;;;;13.17;8.63;;;;;;;;;;5019276;28;20194;-84
2022/10/13 15:55:21;;;;;;;15.90;8.93;;;;;;;;;;5029858;28;20205;-84
2022/10/13 15:58:25;;;;;;;12.97;9.17;;;;;;;;;;5029772;28;20181;-83
2022/10/13 16:01:30;;;;;;;18.50;11.97;;;;;;;;;;5038881;28;20185;-82
2022/10/13 16:04:34;;;;;;;50.60;28.10;;;;;;;;;;5004587;28;20584;-82
2022/10/13 16:07:39;;;;;;;48.87;25.40;;;;;;;;;;5015722;28;20675;-82
2022/10/13 16:10:43;;;;;;;39.13;20.17;;;;;;;;;;5004606;28;20718;-81
2022/10/13 16:13:49;;;;;;;30.73;15.43;;;;;;;;;;5028013;28;20240;-81
2022/10/13 16:16:54;;;;;;;22.53;11.33;;;;;;;;;;5029112;28;20192;-81
2022/10/13 16:19:58;;;;;;;16.27;10.33;;;;;;;;;;5028990;28;20193;-79
2022/10/13 16:23:03;;;;;;;13.57;9.30;;;;;;;;;;5028464;28;20223;-79
2022/10/13 16:26:07;;;;;;;20.43;9.07;;;;;;;;;;5027365;28;20182;-80
2022/10/13 16:29:12;;;;;;;20.03;9.13;;;;;;;;;;5040036;28;20181;-80
2022/10/13 16:32:16;;;;;;;17.70;8.27;;;;;;;;;;5051187;28;20206;-80
2022/10/13 16:35:20;;;;;;;17.87;9.27;;;;;;;;;;5039829;28;20173;-81
2022/10/13 16:38:25;;;;;;;12.10;8.63;;;;;;;;;;5041218;28;20178;-82
2022/10/13 16:41:29;;;;;;;15.70;9.27;;;;;;;;;;5040181;28;20186;-82
2022/10/13 16:44:33;;;;;;;15.20;9.37;;;;;;;;;;5028379;28;20216;-82
2022/10/13 16:47:37;;;;;;;14.87;9.00;;;;;;;;;;5015144;28;20181;-83
2022/10/13 16:50:42;;;;;;;21.73;9.10;;;;;;;;;;5038388;28;20205;-83
2022/10/13 16:53:48;;;;;;;19.17;9.87;;;;;;;;;;5038725;28;20225;-83
2022/10/13 16:56:52;;;;;;;20.93;10.93;;;;;;;;;;5028665;28;20186;-83
2022/10/13 16:59:56;;;;;;;16.13;10.27;;;;;;;;;;5027703;28;20201;-83
2022/10/13 17:03:06;;;;;;;20.03;10.37;;;;;;;;;;5029056;28;20216;-83
2022/10/13 17:06:12;;;;;;;14.97;10.00;;;;;;;;;;5030032;28;20189;-83
2022/10/13 17:09:16;;;;;;;19.67;11.47;;;;;;;;;;5027874;28;20181;-82
2022/10/13 17:12:21;;;;;;;23.87;11.10;;;;;;;;;;5035955;28;20224;-83
2022/10/13 17:15:25;;;;;;;25.03;12.70;;;;;;;;;;5037157;28;20203;-84
2022/10/13 17:18:29;;;;;;;20.97;14.50;;;;;;;;;;5014918;28;20211;-84
2022/10/13 17:21:33;;;;;;;25.60;14.97;;;;;;;;;;5036642;28;20695;-84
2022/10/13 17:24:38;;;;;;;29.10;17.23;;;;;;;;;;5036995;28;20715;-83
2022/10/13 17:27:42;;;;;;;21.67;14.90;;;;;;;;;;5036332;28;20187;-85
2022/10/13 17:31:15;;;;;;;20.90;13.93;;;;;;;;;;5036438;28;20219;-82
2022/10/13 17:34:19;;;;;;;18.60;12.00;;;;;;;;;;5014147;28;20219;-82
2022/10/13 17:37:25;;;;;;;18.60;12.17;;;;;;;;;;5025426;28;20195;-80
2022/10/13 17:40:34;;;;;;;16.47;11.73;;;;;;;;;;5016387;28;20196;-81
2022/10/13 17:43:39;;;;;;;17.67;12.60;;;;;;;;;;5024770;28;20227;-81
2022/10/13 17:46:43;;;;;;;18.07;11.37;;;;;;;;;;5021807;28;20188;-81
2022/10/13 17:49:47;;;;;;;17.57;10.83;;;;;;;;;;5034875;28;20203;-82
2022/10/13 17:52:52;;;;;;;25.07;12.40;;;;;;;;;;5012911;28;20660;-80
2022/10/13 17:56:06;;;;;;;19.70;11.57;;;;;;;;;;5035453;28;20188;-80
2022/10/13 17:59:10;;;;;;;20.27;11.13;;;;;;;;;;5034869;28;20192;-80
2022/10/13 18:02:14;;;;;;;14.57;10.47;;;;;;;;;;5035539;28;20184;-80
2022/10/13 18:05:19;;;;;;;16.07;11.00;;;;;;;;;;5036711;28;20180;-80
2022/10/13 18:08:23;;;;;;;24.00;12.33;;;;;;;;;;5013906;28;20188;-82
2022/10/13 18:11:27;;;;;;;19.40;11.23;;;;;;;;;;5040418;28;20232;-81
2022/10/13 18:14:32;;;;;;;19.40;11.67;;;;;;;;;;5040790;28;20702;-81
2022/10/13 18:17:36;;;;;;;19.13;11.23;;;;;;;;;;5028758;28;20180;-82